Time;durP1;ratioP1;P1;durP2;ratioP2;P2;SDS_P1;SDS_P2;PMS_P1;PMS_P2;Temp;Humidity;BMP_temperature;BMP_pressure;BME280_temperature;BME280_humidity;BME280_pressure;Samples;Min_cycle;Max_cycle;Signal;HPM_P1;HPM_P2
2022/05/07 00:00:38;;;;;;;3.33;2.08;;;14.20;99.90;;;;;;5011034;28;20030;-70
2022/05/07 00:03:04;;;;;;;5.72;2.65;;;14.20;99.90;;;;;;5011316;28;20053;-70
2022/05/07 00:05:31;;;;;;;7.38;3.20;;;14.30;99.90;;;;;;5012255;28;20029;-71
2022/05/07 00:07:57;;;;;;;4.30;2.72;;;14.20;99.90;;;;;;5011946;28;20038;-71
2022/05/07 00:10:23;;;;;;;3.80;2.50;;;14.20;99.90;;;;;;5012330;28;20034;-71
2022/05/07 00:12:49;;;;;;;5.18;2.42;;;14.20;99.90;;;;;;5012781;28;20095;-72
2022/05/07 00:15:15;;;;;;;5.25;2.20;;;14.00;99.90;;;;;;5012135;28;20085;-69
2022/05/07 00:20:30;;;;;;;3.33;2.42;;;14.00;99.90;;;;;;5012671;28;20053;-71
2022/05/07 00:23:07;;;;;;;6.20;2.42;;;14.00;99.90;;;;;;5010837;28;20034;-71
2022/05/07 00:25:32;;;;;;;5.22;3.10;;;14.00;99.90;;;;;;5012256;28;20057;-70
2022/05/07 00:27:58;;;;;;;8.43;2.83;;;13.90;99.90;;;;;;5011573;28;20038;-70
2022/05/07 00:30:23;;;;;;;7.90;3.22;;;13.90;99.90;;;;;;5014789;28;20023;-70
2022/05/07 00:32:49;;;;;;;5.72;2.80;;;13.90;99.90;;;;;;5015963;28;20032;-72
2022/05/07 00:35:16;;;;;;;5.50;3.10;;;13.80;99.90;;;;;;5016664;28;20034;-71
2022/05/07 00:37:42;;;;;;;8.55;3.10;;;13.80;99.90;;;;;;5016460;28;20450;-71
2022/05/07 00:40:08;;;;;;;7.68;3.30;;;13.80;99.90;;;;;;5015769;28;20026;-71
2022/05/07 00:42:33;;;;;;;8.85;2.88;;;13.70;99.90;;;;;;5015501;28;20034;-72
2022/05/07 00:44:59;;;;;;;4.60;2.63;;;13.70;99.90;;;;;;5015841;28;20026;-72
2022/05/07 00:47:26;;;;;;;5.70;3.28;;;13.70;99.90;;;;;;5015462;28;20050;-72
2022/05/07 00:52:49;;;;;;;7.63;2.55;;;13.70;99.90;;;;;;5015879;28;20133;-71
2022/05/07 00:55:15;;;;;;;5.90;3.42;;;13.60;99.90;;;;;;5015607;28;20085;-71
2022/05/07 00:57:41;;;;;;;14.18;4.20;;;13.60;99.90;;;;;;5016166;28;20030;-71
2022/05/07 01:00:08;;;;;;;5.07;3.25;;;13.50;99.90;;;;;;5015680;28;20033;-70
2022/05/07 01:02:36;;;;;;;6.22;3.10;;;13.50;99.90;;;;;;5015706;28;20498;-71
2022/05/07 01:05:02;;;;;;;4.50;2.78;;;13.40;99.90;;;;;;4997992;28;20091;-71
2022/05/07 01:07:28;;;;;;;7.95;3.88;;;13.40;99.90;;;;;;5015317;28;20042;-71
2022/05/07 01:09:54;;;;;;;6.60;3.63;;;13.40;99.90;;;;;;5016004;28;20022;-72
2022/05/07 01:12:20;;;;;;;5.70;3.25;;;13.30;99.90;;;;;;5015669;28;20023;-72
2022/05/07 01:14:46;;;;;;;11.70;4.20;;;13.30;99.90;;;;;;5015320;28;20033;-72
2022/05/07 01:17:12;;;;;;;12.95;4.00;;;13.20;99.90;;;;;;5015443;28;20104;-71
2022/05/07 01:19:38;;;;;;;7.03;3.72;;;13.10;99.90;;;;;;5015417;28;20584;-71
2022/05/07 01:22:04;;;;;;;6.70;4.07;;;13.10;99.90;;;;;;5015483;28;20022;-70
2022/05/07 01:24:30;;;;;;;8.18;4.05;;;13.10;99.90;;;;;;5014905;28;20037;-71
2022/05/07 01:26:59;;;;;;;8.70;4.50;;;13.00;99.90;;;;;;5015041;28;20029;-72
2022/05/07 01:29:25;;;;;;;6.47;4.20;;;12.90;99.90;;;;;;4997429;28;20132;-71
2022/05/07 01:31:50;;;;;;;8.63;4.43;;;12.90;99.90;;;;;;5014970;28;20030;-71
2022/05/07 01:34:16;;;;;;;7.93;4.07;;;13.00;99.90;;;;;;5015497;28;20021;-73
2022/05/07 01:36:43;;;;;;;12.13;4.82;;;12.90;99.90;;;;;;5015433;28;20089;-71
2022/05/07 01:39:08;;;;;;;7.68;4.03;;;12.90;99.90;;;;;;5013461;28;20457;-70
2022/05/07 01:41:42;;;;;;;11.00;4.88;;;12.90;99.90;;;;;;5013155;28;20065;-70
2022/05/07 01:44:07;;;;;;;9.88;4.78;;;12.90;99.90;;;;;;5014880;28;20019;-71
2022/05/07 01:49:37;;;;;;;10.55;5.10;;;12.90;99.90;;;;;;4963990;28;20122;-71
2022/05/07 01:52:03;;;;;;;10.40;4.90;;;13.00;99.90;;;;;;4964127;28;20086;-71
2022/05/07 01:54:28;;;;;;;15.40;5.80;;;12.90;99.90;;;;;;4986784;28;20047;-71
2022/05/07 01:56:54;;;;;;;7.90;4.28;;;12.90;99.90;;;;;;5014053;28;20058;-72
2022/05/07 01:59:20;;;;;;;12.85;6.22;;;12.90;99.90;;;;;;4997200;28;20026;-72
2022/05/07 02:01:45;;;;;;;11.57;5.72;;;12.90;99.90;;;;;;5014866;28;21444;-71
2022/05/07 02:04:11;;;;;;;12.50;5.93;;;12.80;99.90;;;;;;5014770;28;20026;-72
2022/05/07 02:06:36;;;;;;;10.50;5.97;;;12.90;99.90;;;;;;5014782;28;20029;-70
2022/05/07 02:09:02;;;;;;;14.10;6.13;;;12.90;99.90;;;;;;5014355;28;20113;-72
2022/05/07 02:11:28;;;;;;;14.70;6.68;;;12.90;99.90;;;;;;5014586;28;20052;-72
2022/05/07 02:13:54;;;;;;;15.77;6.65;;;12.90;99.90;;;;;;5014645;28;20109;-72
2022/05/07 02:16:20;;;;;;;13.40;7.13;;;12.90;99.90;;;;;;4996458;28;20112;-72
2022/05/07 02:18:47;;;;;;;11.80;7.00;;;12.80;99.90;;;;;;5014594;28;20025;-72
2022/05/07 02:21:13;;;;;;;16.73;7.40;;;12.80;99.90;;;;;;5013762;28;20133;-72
2022/05/07 02:23:38;;;;;;;23.35;8.07;;;12.90;99.90;;;;;;5014282;28;20064;-71
2022/05/07 02:26:04;;;;;;;17.98;7.70;;;12.90;99.90;;;;;;5014317;28;20025;-72
2022/05/07 02:28:29;;;;;;;14.18;7.10;;;13.00;99.90;;;;;;5013893;28;20037;-73
2022/05/07 02:30:55;;;;;;;16.20;7.63;;;13.00;99.90;;;;;;5013738;28;20021;-72
2022/05/07 02:33:21;;;;;;;13.13;6.40;;;13.00;99.90;;;;;;5014293;28;20023;-72
2022/05/07 02:35:47;;;;;;;14.00;6.93;;;13.10;99.90;;;;;;5013776;28;20128;-72
2022/05/07 02:38:12;;;;;;;16.42;7.63;;;13.10;99.90;;;;;;4995677;28;20498;-72
2022/05/07 02:43:22;;;;;;;16.05;8.00;;;13.30;99.90;;;;;;5013081;28;20042;-72
2022/05/07 02:45:49;;;;;;;36.67;8.38;;;13.20;99.90;;;;;;5013485;28;20046;-71
2022/05/07 02:48:15;;;;;;;20.98;8.23;;;13.30;99.90;;;;;;5013971;28;20087;-71
2022/05/07 02:50:41;;;;;;;20.52;9.40;;;13.30;99.90;;;;;;5013484;28;20054;-71
2022/05/07 02:53:06;;;;;;;16.42;8.50;;;13.30;99.90;;;;;;5012934;28;20061;-70
2022/05/07 02:55:32;;;;;;;17.55;9.32;;;13.40;99.90;;;;;;5013852;28;20044;-70
2022/05/07 02:57:57;;;;;;;16.17;8.32;;;13.40;99.90;;;;;;5013057;28;20027;-71
2022/05/07 03:00:23;;;;;;;19.02;9.75;;;13.40;99.90;;;;;;5012668;28;20113;-71
2022/05/07 03:02:49;;;;;;;24.98;9.30;;;13.40;99.90;;;;;;5013748;28;20029;-71
2022/05/07 03:05:15;;;;;;;18.42;8.70;;;13.40;99.90;;;;;;5013458;28;20038;-72
2022/05/07 03:07:41;;;;;;;8.80;4.75;;;13.50;99.90;;;;;;5012959;28;20394;-71
2022/05/07 03:10:07;;;;;;;8.45;4.07;;;13.50;99.90;;;;;;5013347;28;20530;-71
2022/05/07 03:12:32;;;;;;;7.32;3.30;;;13.50;99.90;;;;;;5013306;28;20030;-71
2022/05/07 03:14:58;;;;;;;10.43;4.70;;;13.50;99.90;;;;;;5013027;28;20037;-72
2022/05/07 03:17:26;;;;;;;8.10;3.92;;;13.40;99.90;;;;;;5012825;28;20023;-72
2022/05/07 03:19:52;;;;;;;9.48;5.05;;;13.40;99.90;;;;;;5012728;28;20034;-71
2022/05/07 03:22:18;;;;;;;8.35;4.65;;;13.40;99.90;;;;;;4993504;28;20542;-72
2022/05/07 03:24:43;;;;;;;12.40;5.35;;;13.40;99.90;;;;;;5013375;28;20037;-72
2022/05/07 03:27:09;;;;;;;10.18;4.47;;;13.40;99.90;;;;;;5012870;28;20037;-71
2022/05/07 03:29:35;;;;;;;13.63;4.75;;;13.40;99.90;;;;;;5012956;28;20041;-72
2022/05/07 03:32:00;;;;;;;9.15;4.57;;;13.30;99.90;;;;;;5013000;28;20018;-71
2022/05/07 03:34:26;;;;;;;8.57;4.55;;;13.30;99.90;;;;;;5012918;28;20026;-70
2022/05/07 03:36:51;;;;;;;8.98;4.25;;;13.30;99.90;;;;;;5012859;28;20118;-72
2022/05/07 03:39:17;;;;;;;9.52;4.90;;;13.20;99.90;;;;;;5013204;28;20049;-70
2022/05/07 03:41:43;;;;;;;6.60;4.28;;;13.30;99.90;;;;;;5011444;28;20470;-71
2022/05/07 03:44:08;;;;;;;7.88;4.13;;;13.20;99.90;;;;;;5012783;28;20030;-71
2022/05/07 03:46:34;;;;;;;10.05;4.13;;;13.20;99.90;;;;;;5012310;28;20756;-71
2022/05/07 03:49:00;;;;;;;11.30;3.88;;;13.20;99.90;;;;;;5012335;28;20052;-70
2022/05/07 03:51:25;;;;;;;17.15;5.00;;;13.10;99.90;;;;;;5012093;28;20517;-72
2022/05/07 03:53:52;;;;;;;9.57;4.97;;;13.10;99.90;;;;;;5012554;28;20029;-71
2022/05/07 03:56:17;;;;;;;12.05;5.32;;;13.10;99.90;;;;;;5013053;28;20114;-71
2022/05/07 03:58:43;;;;;;;11.60;5.35;;;13.10;99.90;;;;;;5011328;28;20460;-71
2022/05/07 04:01:09;;;;;;;10.25;5.05;;;13.00;99.90;;;;;;4994762;28;20023;-71
2022/05/07 04:03:35;;;;;;;9.88;5.90;;;13.00;99.90;;;;;;5012710;28;20026;-71
2022/05/07 04:06:00;;;;;;;13.68;5.03;;;13.00;99.90;;;;;;5012608;28;20038;-71
2022/05/07 04:08:26;;;;;;;10.10;4.85;;;13.00;99.90;;;;;;5012557;28;20034;-71
2022/05/07 04:10:52;;;;;;;9.63;4.60;;;12.90;99.90;;;;;;5012713;28;20107;-71
2022/05/07 04:13:18;;;;;;;7.05;4.65;;;12.90;99.90;;;;;;5012343;28;20034;-71
2022/05/07 04:15:44;;;;;;;8.75;4.15;;;12.90;99.90;;;;;;5012314;28;20045;-71
2022/05/07 04:18:10;;;;;;;12.25;4.97;;;12.80;99.90;;;;;;4994922;28;20375;-70
2022/05/07 04:20:37;;;;;;;17.98;6.25;;;12.80;99.90;;;;;;5012150;28;20026;-71
2022/05/07 04:23:04;;;;;;;9.07;4.75;;;12.80;99.90;;;;;;5011676;28;20039;-70
2022/05/07 04:25:30;;;;;;;9.55;4.95;;;12.80;99.90;;;;;;5008684;28;20040;-72
2022/05/07 04:27:56;;;;;;;14.40;5.90;;;12.70;99.90;;;;;;5011822;28;20121;-72
2022/05/07 04:30:31;;;;;;;12.88;5.50;;;12.80;99.90;;;;;;5011917;28;20026;-73
2022/05/07 04:32:56;;;;;;;9.60;5.45;;;12.80;99.90;;;;;;5011712;28;20027;-72
2022/05/07 04:35:22;;;;;;;11.10;5.40;;;12.80;99.90;;;;;;5011838;28;20076;-72
2022/05/07 04:37:48;;;;;;;9.45;5.07;;;12.80;99.90;;;;;;5012175;28;20030;-72
2022/05/07 04:40:15;;;;;;;11.82;5.85;;;12.80;99.90;;;;;;5012313;28;20034;-71
2022/05/07 04:42:41;;;;;;;9.15;4.90;;;12.80;99.90;;;;;;5008907;28;20033;-70
2022/05/07 04:45:07;;;;;;;11.85;6.03;;;12.80;99.90;;;;;;5010133;28;20029;-70
2022/05/07 04:47:33;;;;;;;11.82;6.10;;;12.90;99.90;;;;;;5009903;28;20483;-71
2022/05/07 04:49:59;;;;;;;10.80;5.68;;;12.90;99.90;;;;;;5008824;28;20045;-71
2022/05/07 04:52:26;;;;;;;20.65;6.65;;;13.00;99.90;;;;;;5011734;28;20042;-72
2022/05/07 04:54:52;;;;;;;18.33;7.15;;;13.00;99.90;;;;;;4993149;28;20557;-71
2022/05/07 04:57:18;;;;;;;13.90;6.57;;;13.10;99.90;;;;;;5011139;28;20058;-72
2022/05/07 04:59:44;;;;;;;13.45;6.97;;;13.10;99.90;;;;;;5008803;28;20026;-72
2022/05/07 05:02:09;;;;;;;14.80;6.85;;;13.20;99.90;;;;;;5010466;28;20030;-71
2022/05/07 05:04:35;;;;;;;12.68;7.00;;;13.20;99.90;;;;;;4993296;28;20035;-71
2022/05/07 05:07:01;;;;;;;14.60;7.22;;;13.30;99.90;;;;;;5010796;28;20034;-72
2022/05/07 05:09:26;;;;;;;16.13;8.25;;;13.30;99.90;;;;;;5010054;28;20038;-73
2022/05/07 05:11:52;;;;;;;16.25;8.40;;;13.40;99.90;;;;;;5011079;28;20091;-73
2022/05/07 05:17:02;;;;;;;;;;;13.60;99.90;;;;;;5015587;28;20065;-72
2022/05/07 05:19:28;;;;;;;15.98;7.07;;;13.60;99.90;;;;;;5015428;28;19913;-72
2022/05/07 05:21:53;;;;;;;21.65;6.65;;;13.70;99.90;;;;;;5015331;28;20026;-73
2022/05/07 05:24:19;;;;;;;9.52;5.13;;;13.70;99.90;;;;;;5015581;28;20500;-73
2022/05/07 05:26:45;;;;;;;12.80;6.38;;;13.70;99.90;;;;;;5015462;28;20026;-74
2022/05/07 05:29:11;;;;;;;19.50;6.93;;;13.80;99.90;;;;;;5015165;28;20046;-72
2022/05/07 05:31:36;;;;;;;15.25;6.15;;;13.80;99.90;;;;;;4997623;28;20024;-71
2022/05/07 05:34:02;;;;;;;25.65;8.68;;;13.70;99.90;;;;;;5015039;28;20113;-72
2022/05/07 05:36:27;;;;;;;26.48;12.07;;;13.90;99.90;;;;;;5015298;28;20033;-71
2022/05/07 05:39:06;;;;;;;22.98;9.95;;;13.90;99.90;;;;;;5015271;28;20022;-72
2022/05/07 05:41:31;;;;;;;21.85;10.27;;;13.90;99.90;;;;;;5013163;28;20025;-71
2022/05/07 05:43:57;;;;;;;33.30;13.35;;;13.90;99.90;;;;;;5015221;28;20101;-70
2022/05/07 05:46:22;;;;;;;33.25;12.93;;;13.90;99.90;;;;;;5014417;28;20046;-71
2022/05/07 05:48:48;;;;;;;28.17;12.48;;;14.00;99.90;;;;;;4997678;28;20034;-72
2022/05/07 05:51:14;;;;;;;23.90;11.65;;;13.90;99.90;;;;;;5015032;28;20128;-72
2022/05/07 05:53:40;;;;;;;35.25;13.40;;;14.10;99.90;;;;;;5014580;28;20041;-71
2022/05/07 05:56:05;;;;;;;31.63;12.40;;;14.20;99.90;;;;;;5011761;28;20041;-71
2022/05/07 05:58:35;;;;;;;32.17;13.38;;;14.30;99.90;;;;;;5000485;28;20394;-71
2022/05/07 06:01:02;;;;;;;24.05;12.30;;;14.30;99.90;;;;;;5014134;28;20018;-71
2022/05/07 06:03:28;;;;;;;32.67;14.68;;;14.40;99.90;;;;;;5013544;28;20053;-72
2022/05/07 06:05:54;;;;;;;34.45;13.50;;;14.40;99.90;;;;;;5012992;28;20030;-71
2022/05/07 06:08:19;;;;;;;32.58;12.25;;;14.40;99.90;;;;;;5010895;28;20131;-71
2022/05/07 06:10:46;;;;;;;33.25;12.93;;;14.40;99.90;;;;;;5013530;28;20026;-71
2022/05/07 06:13:15;;;;;;;27.35;13.32;;;14.40;99.90;;;;;;4997109;28;20110;-70
2022/05/07 06:15:41;;;;;;;29.30;13.30;;;14.40;99.90;;;;;;5014569;28;20026;-70
2022/05/07 06:18:07;;;;;;;30.40;14.10;;;14.30;99.90;;;;;;5013579;28;20033;-69
2022/05/07 06:20:32;;;;;;;29.58;12.93;;;14.30;99.90;;;;;;5013772;28;20034;-70
2022/05/07 06:23:00;;;;;;;25.02;12.30;;;14.30;99.90;;;;;;5011958;28;20030;-70
2022/05/07 06:28:10;;;;;;;32.75;14.68;;;14.30;99.90;;;;;;5013964;28;20054;-70
2022/05/07 06:30:36;;;;;;;23.30;11.88;;;14.30;99.90;;;;;;5013938;28;20034;-70
2022/05/07 06:33:02;;;;;;;31.88;13.60;;;14.40;99.90;;;;;;5014367;28;20058;-70
2022/05/07 06:35:28;;;;;;;30.60;12.77;;;14.40;99.90;;;;;;5013805;28;20022;-70
2022/05/07 06:37:54;;;;;;;30.23;13.80;;;14.40;99.90;;;;;;5014337;28;20099;-71
2022/05/07 06:40:20;;;;;;;24.17;11.48;;;14.50;99.90;;;;;;5013399;28;20030;-69
2022/05/07 06:42:46;;;;;;;22.83;11.40;;;14.50;99.90;;;;;;5012942;28;20049;-70
2022/05/07 06:45:12;;;;;;;24.20;12.05;;;14.50;99.90;;;;;;5009326;28;20064;-69
2022/05/07 06:47:38;;;;;;;34.65;13.38;;;14.50;99.90;;;;;;5011556;28;20482;-70
2022/05/07 06:50:05;;;;;;;35.00;13.90;;;14.60;99.90;;;;;;5010572;28;20129;-70
2022/05/07 06:52:31;;;;;;;35.92;12.63;;;14.70;99.90;;;;;;5012439;28;20069;-70
2022/05/07 06:54:56;;;;;;;30.85;12.15;;;14.80;99.90;;;;;;5013329;28;20459;-70
2022/05/07 06:57:24;;;;;;;33.03;14.30;;;14.90;99.90;;;;;;5009985;28;20048;-70
2022/05/07 06:59:50;;;;;;;35.80;13.85;;;14.90;99.90;;;;;;5012983;28;20037;-70
2022/05/07 07:02:16;;;;;;;43.22;15.27;;;15.00;99.90;;;;;;5012506;28;20042;-71
2022/05/07 07:04:41;;;;;;;24.80;11.50;;;15.10;99.90;;;;;;5010726;28;20036;-70
2022/05/07 07:07:07;;;;;;;26.60;11.80;;;15.20;99.90;;;;;;5011942;28;20058;-71
2022/05/07 07:09:34;;;;;;;28.30;11.38;;;15.20;99.90;;;;;;5010465;28;20201;-70
2022/05/07 07:11:59;;;;;;;24.17;10.95;;;15.40;99.90;;;;;;5011319;28;20034;-70
2022/05/07 07:14:25;;;;;;;24.52;11.23;;;15.30;99.90;;;;;;5010546;28;20037;-72
2022/05/07 07:16:50;;;;;;;21.77;11.55;;;15.60;99.90;;;;;;5011191;28;20474;-71
2022/05/07 07:19:16;;;;;;;23.00;10.77;;;15.70;99.90;;;;;;5011794;28;20029;-72
2022/05/07 07:21:43;;;;;;;20.52;9.48;;;15.80;99.90;;;;;;5010716;28;20477;-70
2022/05/07 07:24:08;;;;;;;19.65;9.32;;;15.90;99.90;;;;;;5011769;28;20030;-69
2022/05/07 07:26:34;;;;;;;16.63;8.00;;;15.90;99.90;;;;;;5011763;28;20036;-71
2022/05/07 07:29:00;;;;;;;16.60;7.47;;;15.90;99.90;;;;;;5012978;28;20610;-71
2022/05/07 07:31:25;;;;;;;18.98;7.22;;;15.90;99.90;;;;;;5012539;28;20030;-71
2022/05/07 07:33:51;;;;;;;16.30;6.85;;;15.90;99.90;;;;;;4994817;28;20026;-71
2022/05/07 07:36:17;;;;;;;18.65;6.07;;;15.90;99.90;;;;;;5012542;28;20086;-71
2022/05/07 07:38:43;;;;;;;10.95;5.78;;;16.00;99.90;;;;;;5009303;28;20050;-71
2022/05/07 07:41:08;;;;;;;10.18;5.22;;;16.00;99.90;;;;;;5009985;28;20148;-71
2022/05/07 07:43:35;;;;;;;10.23;4.38;;;16.10;99.90;;;;;;5011754;28;20029;-71
2022/05/07 07:48:46;;;;;;;10.50;3.88;;;16.10;99.90;;;;;;5008330;28;20049;-70
2022/05/07 07:51:12;;;;;;;7.68;3.85;;;16.20;99.90;;;;;;5011762;28;20429;-71
2022/05/07 07:53:38;;;;;;;9.35;4.53;;;16.10;99.90;;;;;;5012646;28;20025;-71
2022/05/07 07:56:04;;;;;;;14.63;5.05;;;16.10;99.90;;;;;;5012597;28;20026;-71
2022/05/07 07:58:30;;;;;;;11.70;5.15;;;16.10;99.90;;;;;;5009933;28;20054;-72
2022/05/07 08:00:57;;;;;;;15.25;4.63;;;16.20;99.90;;;;;;4995100;28;20061;-72
2022/05/07 08:03:23;;;;;;;10.50;4.70;;;16.20;99.90;;;;;;5012011;28;20031;-71
2022/05/07 08:05:52;;;;;;;9.15;4.78;;;16.50;99.90;;;;;;5010375;28;20033;-70
2022/05/07 08:13:49;;;;;;;4.78;2.22;;;16.60;99.90;;;;;;5011889;28;20033;-72
2022/05/07 08:16:19;;;;;;;4.00;2.35;;;16.70;99.90;;;;;;5011786;28;20034;-71
2022/05/07 08:18:46;;;;;;;7.70;4.20;;;16.80;99.90;;;;;;5011911;28;20018;-72
2022/05/07 08:21:13;;;;;;;8.02;2.58;;;17.00;99.90;;;;;;4995702;28;20041;-72
2022/05/07 08:23:41;;;;;;;5.07;2.58;;;17.10;99.90;;;;;;5010358;28;20024;-72
2022/05/07 08:26:09;;;;;;;5.18;2.13;;;17.30;99.90;;;;;;5011098;28;20026;-71
2022/05/07 08:28:36;;;;;;;3.33;2.00;;;17.40;99.90;;;;;;5011363;28;20050;-70
2022/05/07 08:31:02;;;;;;;7.57;2.65;;;17.40;99.90;;;;;;5011862;28;20022;-71
2022/05/07 08:33:31;;;;;;;4.88;3.22;;;17.40;99.90;;;;;;5011684;28;20018;-72
2022/05/07 08:35:57;;;;;;;12.23;5.20;;;17.60;99.90;;;;;;4990791;28;20036;-72
2022/05/07 08:38:24;;;;;;;9.27;4.82;;;17.60;99.90;;;;;;5007829;28;20025;-72
2022/05/07 08:40:51;;;;;;;11.88;5.00;;;17.80;99.90;;;;;;5011760;28;20039;-73
2022/05/07 08:43:16;;;;;;;13.68;3.28;;;17.90;99.90;;;;;;4992572;28;20140;-71
2022/05/07 08:45:44;;;;;;;10.05;4.43;;;18.00;99.90;;;;;;5012021;28;20026;-71
2022/05/07 08:48:10;;;;;;;11.07;3.95;;;18.10;99.90;;;;;;5010514;28;20430;-72
2022/05/07 08:50:37;;;;;;;9.77;3.55;;;18.10;99.90;;;;;;5012385;28;20026;-72
2022/05/07 08:53:03;;;;;;;5.65;2.90;;;18.20;99.90;;;;;;5015359;28;20280;-72
2022/05/07 08:55:30;;;;;;;5.05;2.72;;;18.30;99.90;;;;;;5015986;28;20052;-72
2022/05/07 08:57:56;;;;;;;5.43;3.10;;;18.50;99.90;;;;;;4997313;28;20033;-72
2022/05/07 09:00:24;;;;;;;6.15;2.83;;;18.60;99.90;;;;;;4996028;28;20652;-73
2022/05/07 09:02:55;;;;;;;11.18;2.72;;;18.70;99.90;;;;;;5015747;28;20018;-73
2022/05/07 09:05:31;;;;;;;7.55;2.67;;;18.60;99.90;;;;;;5016209;28;20089;-72
2022/05/07 09:07:58;;;;;;;9.85;4.88;;;18.50;99.90;;;;;;5014840;28;20073;-73
2022/05/07 09:10:30;;;;;;;10.65;4.07;;;18.60;99.90;;;;;;5015699;28;20030;-73
2022/05/07 09:13:13;;;;;;;11.23;4.15;;;18.70;99.90;;;;;;5015037;28;20097;-72
2022/05/07 09:15:55;;;;;;;6.53;3.33;;;19.00;99.90;;;;;;4997110;28;20029;-72
2022/05/07 09:18:22;;;;;;;11.13;3.40;;;19.20;99.90;;;;;;4995883;28;20064;-71
2022/05/07 09:21:35;;;;;;;9.13;2.92;;;19.30;99.90;;;;;;5015169;28;20378;-72
2022/05/07 09:24:05;;;;;;;4.85;2.65;;;19.20;99.90;;;;;;5009124;28;20049;-71
2022/05/07 09:26:40;;;;;;;6.07;2.70;;;19.20;99.90;;;;;;5014648;28;20030;-70
2022/05/07 09:29:11;;;;;;;7.93;3.40;;;19.10;99.90;;;;;;5014631;28;20027;-71
2022/05/07 09:31:41;;;;;;;6.47;2.95;;;19.10;99.90;;;;;;5015457;28;20084;-71
2022/05/07 09:36:55;;;;;;;6.30;2.67;;;19.30;99.90;;;;;;5012683;28;20126;-72
2022/05/07 09:39:21;;;;;;;4.32;2.22;;;19.40;99.90;;;;;;5012812;28;20066;-73
2022/05/07 09:41:54;;;;;;;7.10;3.47;;;19.50;99.90;;;;;;5012992;28;20026;-73
2022/05/07 09:44:24;;;;;;;10.68;3.33;;;19.60;99.90;;;;;;5005903;28;20077;-72
2022/05/07 09:46:50;;;;;;;11.73;3.17;;;19.60;99.90;;;;;;5007581;28;20038;-73
2022/05/07 09:49:17;;;;;;;8.73;3.55;;;19.60;99.90;;;;;;5013067;28;20038;-72
2022/05/07 09:51:43;;;;;;;10.68;3.88;;;19.70;99.90;;;;;;4994560;28;20538;-71
2022/05/07 09:59:38;;;;;;;;;;;19.60;99.90;;;;;;5014368;28;20080;-71
2022/05/07 10:02:24;;;;;;;6.05;3.22;;;19.70;99.90;;;;;;5010084;28;19913;-71
2022/05/07 10:04:59;;;;;;;6.00;3.22;;;19.80;99.90;;;;;;5013942;28;20026;-72
2022/05/07 10:07:31;;;;;;;;;;;19.80;99.90;;;;;;5014096;28;20034;-72
2022/05/07 10:10:02;;;;;;;5.90;3.08;;;19.70;99.90;;;;;;4995812;28;19929;-72
2022/05/07 10:12:28;;;;;;;7.95;3.03;;;19.60;99.90;;;;;;5012728;28;20367;-72
2022/05/07 10:15:05;;;;;;;10.52;2.90;;;19.70;99.90;;;;;;4997224;28;20454;-71
2022/05/07 10:17:31;;;;;;;7.97;3.88;;;19.70;99.90;;;;;;5014656;28;20049;-73
2022/05/07 10:20:09;;;;;;;6.28;2.85;;;19.70;99.90;;;;;;5013797;28;20363;-72
2022/05/07 10:22:35;;;;;;;7.20;3.13;;;19.80;99.90;;;;;;5014002;28;20029;-74
2022/05/07 10:25:13;;;;;;;10.15;3.75;;;19.70;99.90;;;;;;5013787;28;20026;-73
2022/05/07 10:27:44;;;;;;;6.38;2.88;;;19.70;99.90;;;;;;5013423;28;20022;-73
2022/05/07 10:30:10;;;;;;;5.50;2.70;;;19.70;99.90;;;;;;5013241;28;20034;-73
2022/05/07 10:32:59;;;;;;;8.38;3.90;;;19.60;99.90;;;;;;5014239;28;20052;-74
2022/05/07 10:35:53;;;;;;;7.32;3.22;;;19.60;99.90;;;;;;5013581;28;20495;-72
2022/05/07 10:38:37;;;;;;;5.63;2.72;;;19.60;99.90;;;;;;5014115;28;20022;-72
2022/05/07 10:41:18;;;;;;;8.35;3.92;;;19.60;99.90;;;;;;4994144;28;20130;-73
2022/05/07 10:43:56;;;;;;;8.55;2.50;;;19.60;99.90;;;;;;5014136;28;20128;-73
2022/05/07 10:46:22;;;;;;;12.82;3.05;;;19.70;99.90;;;;;;5012807;28;20129;-71
2022/05/07 10:49:04;;;;;;;7.55;3.13;;;19.80;99.90;;;;;;5012878;28;20040;-72
2022/05/07 10:51:32;;;;;;;3.20;1.90;;;19.90;99.90;;;;;;5007174;28;20120;-73
2022/05/07 10:54:03;;;;;;;3.50;1.65;;;19.90;99.90;;;;;;5012994;28;20022;-73
2022/05/07 10:56:34;;;;;;;3.05;1.33;;;20.00;99.90;;;;;;5014217;28;21448;-73
2022/05/07 10:59:01;;;;;;;4.93;2.03;;;20.00;99.90;;;;;;5013854;28;20069;-71
2022/05/07 11:01:28;;;;;;;4.20;1.88;;;20.00;99.90;;;;;;5013744;28;20034;-73
2022/05/07 11:04:24;;;;;;;4.50;1.95;;;20.00;99.90;;;;;;5013598;28;20142;-73
2022/05/07 11:06:52;;;;;;;5.85;2.05;;;20.20;99.90;;;;;;5011961;28;20430;-73
2022/05/07 11:09:26;;;;;;;2.20;1.50;;;20.30;99.90;;;;;;5013696;28;20035;-73
2022/05/07 11:11:54;;;;;;;4.68;1.52;;;20.40;99.90;;;;;;5012702;28;20069;-73
2022/05/07 11:14:35;;;;;;;5.07;2.05;;;20.70;99.90;;;;;;5012489;28;20172;-73
2022/05/07 11:17:03;;;;;;;7.97;1.83;;;21.00;99.90;;;;;;5010508;28;20030;-72
2022/05/07 11:19:33;;;;;;;3.38;1.70;;;21.30;99.90;;;;;;4994871;28;20038;-73
2022/05/07 11:22:00;;;;;;;3.72;1.90;;;21.60;99.90;;;;;;5010090;28;20542;-72
2022/05/07 11:24:31;;;;;;;4.75;2.13;;;21.80;99.90;;;;;;4999438;28;20054;-71
2022/05/07 11:27:03;;;;;;;6.72;2.05;;;21.90;99.90;;;;;;4993869;28;20034;-74
2022/05/07 11:29:32;;;;;;;3.83;2.22;;;21.90;99.90;;;;;;5001160;28;20575;-71
2022/05/07 11:32:04;;;;;;;3.67;1.75;;;22.10;99.90;;;;;;4993033;28;20026;-71
2022/05/07 11:34:33;;;;;;;12.80;2.42;;;22.40;99.90;;;;;;5005955;28;20027;-73
2022/05/07 11:37:10;;;;;;;3.22;2.00;;;22.50;99.90;;;;;;5005721;28;20030;-72
2022/05/07 11:39:54;;;;;;;4.35;2.22;;;22.30;99.90;;;;;;5006003;28;20064;-73
2022/05/07 11:42:35;;;;;;;3.33;1.80;;;21.90;99.90;;;;;;4987430;28;20045;-72
2022/05/07 11:48:11;;;;;;;6.40;2.28;;;21.40;99.90;;;;;;5005847;28;20057;-75
2022/05/07 11:50:42;;;;;;;5.03;2.15;;;21.10;99.90;;;;;;4978747;28;20066;-72
2022/05/07 11:53:13;;;;;;;6.00;2.22;;;21.00;99.90;;;;;;4969024;28;20364;-74
2022/05/07 11:55:39;;;;;;;2.35;1.58;;;20.80;99.90;;;;;;4986061;28;20035;-72
2022/05/07 11:58:18;;;;;;;3.17;1.65;;;20.80;99.90;;;;;;4985917;28;20034;-72
2022/05/07 12:00:46;;;;;;;5.35;1.17;;;20.90;99.90;;;;;;4986464;28;20023;-71
2022/05/07 12:03:22;;;;;;;1.67;1.20;;;21.20;99.90;;;;;;4986016;28;20084;-72
2022/05/07 12:05:50;;;;;;;1.73;1.35;;;21.50;99.90;;;;;;4986139;28;20027;-73
2022/05/07 12:08:21;;;;;;;2.80;1.40;;;21.70;99.90;;;;;;4994192;28;20043;-72
2022/05/07 12:10:53;;;;;;;3.13;1.75;;;21.90;99.90;;;;;;4984579;28;20042;-73
2022/05/07 12:13:21;;;;;;;4.15;1.65;;;21.90;99.90;;;;;;4986149;28;20461;-73
2022/05/07 12:18:32;;;;;;;2.47;1.35;;;21.90;99.90;;;;;;4985328;28;20049;-72
2022/05/07 12:20:58;;;;;;;2.25;1.42;;;21.80;99.90;;;;;;4986386;28;20087;-71
2022/05/07 12:31:38;;;;;;;8.82;2.25;;;21.00;99.90;;;;;;5008930;28;20057;-72
2022/05/07 12:34:04;;;;;;;3.60;2.05;;;20.80;99.90;;;;;;5009485;28;20030;-72
2022/05/07 12:36:34;;;;;;;6.85;2.38;;;20.70;99.90;;;;;;5006985;28;20026;-72
2022/05/07 12:38:59;;;;;;;7.80;2.58;;;20.60;99.90;;;;;;4998957;28;20030;-71
2022/05/07 12:41:29;;;;;;;10.23;2.83;;;20.60;99.90;;;;;;5003031;28;20430;-73
2022/05/07 12:43:57;;;;;;;5.40;2.92;;;20.50;99.90;;;;;;5008789;28;20026;-73
2022/05/07 12:46:27;;;;;;;8.02;3.10;;;20.40;99.90;;;;;;5018970;28;20065;-73
2022/05/07 12:48:56;;;;;;;15.35;2.65;;;20.20;99.90;;;;;;5008984;28;20046;-73
2022/05/07 12:51:22;;;;;;;7.75;3.20;;;20.10;99.90;;;;;;4991400;28;20023;-72
2022/05/07 12:53:49;;;;;;;10.23;3.05;;;20.10;99.90;;;;;;5006766;28;20053;-73
2022/05/07 12:56:19;;;;;;;6.65;3.33;;;20.00;99.90;;;;;;5006894;28;20763;-73
2022/05/07 12:58:49;;;;;;;5.55;2.47;;;20.00;99.90;;;;;;4996101;28;20035;-74
2022/05/07 13:01:16;;;;;;;5.32;2.88;;;19.90;99.90;;;;;;5004238;28;20056;-74
2022/05/07 13:03:42;;;;;;;7.65;2.30;;;19.90;99.90;;;;;;5006926;28;20030;-73
2022/05/07 13:06:08;;;;;;;7.95;3.05;;;20.10;99.90;;;;;;4991574;28;20034;-72
2022/05/07 13:08:33;;;;;;;4.38;2.28;;;20.30;99.90;;;;;;5007014;28;20084;-73
2022/05/07 13:10:59;;;;;;;4.75;2.45;;;20.40;99.90;;;;;;5007942;28;20034;-73
2022/05/07 13:13:25;;;;;;;3.58;1.70;;;20.60;99.90;;;;;;5007236;28;20082;-73
2022/05/07 13:15:51;;;;;;;23.70;2.50;;;20.70;99.90;;;;;;4993350;28;20030;-72
2022/05/07 13:18:18;;;;;;;4.80;2.42;;;20.70;99.90;;;;;;4971736;28;20117;-73
2022/05/07 13:20:44;;;;;;;6.57;2.63;;;20.70;99.90;;;;;;4988884;28;20030;-74
2022/05/07 13:23:12;;;;;;;6.43;1.73;;;20.60;99.90;;;;;;4988813;28;20054;-74
2022/05/07 13:25:38;;;;;;;3.15;1.85;;;20.40;99.90;;;;;;4971631;28;20466;-74
2022/05/07 13:28:04;;;;;;;4.68;2.13;;;20.10;99.90;;;;;;4988709;28;20042;-74
2022/05/07 13:30:30;;;;;;;6.65;2.05;;;19.80;99.90;;;;;;4988719;28;20026;-72